sensor_id;sensor_type;location;lat;lon;timestamp;temperature;humidity
14140;DHT22;7150;53.514;9.988;2022-12-18T00:01:25;3.10;73.90
14140;DHT22;7150;53.514;9.988;2022-12-18T00:03:52;3.00;74.40
14140;DHT22;7150;53.514;9.988;2022-12-18T00:06:18;3.00;74.20
14140;DHT22;7150;53.514;9.988;2022-12-18T00:08:45;3.10;74.20
14140;DHT22;7150;53.514;9.988;2022-12-18T00:11:13;3.00;73.90
14140;DHT22;7150;53.514;9.988;2022-12-18T00:13:38;3.00;74.00
14140;DHT22;7150;53.514;9.988;2022-12-18T00:16:07;3.00;74.00
14140;DHT22;7150;53.514;9.988;2022-12-18T00:18:33;3.00;73.90
14140;DHT22;7150;53.514;9.988;2022-12-18T00:21:00;3.10;73.90
14140;DHT22;7150;53.514;9.988;2022-12-18T00:23:27;3.00;73.70
14140;DHT22;7150;53.514;9.988;2022-12-18T00:25:52;3.00;73.70
14140;DHT22;7150;53.514;9.988;2022-12-18T00:28:18;3.00;73.70
14140;DHT22;7150;53.514;9.988;2022-12-18T00:30:43;3.00;73.60
14140;DHT22;7150;53.514;9.988;2022-12-18T00:33:09;2.90;73.70
14140;DHT22;7150;53.514;9.988;2022-12-18T00:35:34;2.90;73.80
14140;DHT22;7150;53.514;9.988;2022-12-18T00:38:00;2.90;73.40
14140;DHT22;7150;53.514;9.988;2022-12-18T00:40:25;2.80;73.50
14140;DHT22;7150;53.514;9.988;2022-12-18T00:42:51;2.80;73.80
14140;DHT22;7150;53.514;9.988;2022-12-18T00:45:27;2.90;73.80
14140;DHT22;7150;53.514;9.988;2022-12-18T00:47:53;2.90;73.80
14140;DHT22;7150;53.514;9.988;2022-12-18T00:50:19;2.90;73.70
14140;DHT22;7150;53.514;9.988;2022-12-18T00:52:45;2.90;73.60
14140;DHT22;7150;53.514;9.988;2022-12-18T00:55:11;2.90;73.40
14140;DHT22;7150;53.514;9.988;2022-12-18T00:57:36;2.80;73.40
14140;DHT22;7150;53.514;9.988;2022-12-18T01:00:04;2.80;73.30
14140;DHT22;7150;53.514;9.988;2022-12-18T01:02:30;2.80;73.30
14140;DHT22;7150;53.514;9.988;2022-12-18T01:04:56;2.80;73.10
14140;DHT22;7150;53.514;9.988;2022-12-18T01:07:21;2.80;73.30
14140;DHT22;7150;53.514;9.988;2022-12-18T01:09:46;2.80;73.30
14140;DHT22;7150;53.514;9.988;2022-12-18T01:12:12;2.70;73.20
14140;DHT22;7150;53.514;9.988;2022-12-18T01:14:37;2.70;73.30
14140;DHT22;7150;53.514;9.988;2022-12-18T01:17:03;2.70;73.30
14140;DHT22;7150;53.514;9.988;2022-12-18T01:19:29;2.70;73.30
14140;DHT22;7150;53.514;9.988;2022-12-18T01:21:54;2.70;73.20
14140;DHT22;7150;53.514;9.988;2022-12-18T01:24:20;2.70;73.40
14140;DHT22;7150;53.514;9.988;2022-12-18T01:26:45;2.70;73.10
14140;DHT22;7150;53.514;9.988;2022-12-18T01:29:11;2.70;73.00
14140;DHT22;7150;53.514;9.988;2022-12-18T01:31:36;2.70;73.00
14140;DHT22;7150;53.514;9.988;2022-12-18T01:34:03;2.70;72.70
14140;DHT22;7150;53.514;9.988;2022-12-18T01:36:31;2.70;72.60
14140;DHT22;7150;53.514;9.988;2022-12-18T01:38:59;2.70;72.70
14140;DHT22;7150;53.514;9.988;2022-12-18T01:41:27;2.60;72.60
14140;DHT22;7150;53.514;9.988;2022-12-18T01:49:47;2.50;72.90
14140;DHT22;7150;53.514;9.988;2022-12-18T01:52:13;2.50;72.90
14140;DHT22;7150;53.514;9.988;2022-12-18T01:54:39;2.50;72.80
14140;DHT22;7150;53.514;9.988;2022-12-18T01:57:04;2.50;72.80
14140;DHT22;7150;53.514;9.988;2022-12-18T01:59:31;2.50;72.70
14140;DHT22;7150;53.514;9.988;2022-12-18T02:01:57;2.50;72.70
14140;DHT22;7150;53.514;9.988;2022-12-18T02:04:25;2.40;72.70
14140;DHT22;7150;53.514;9.988;2022-12-18T02:06:57;2.50;72.70
14140;DHT22;7150;53.514;9.988;2022-12-18T02:09:38;2.40;72.80
14140;DHT22;7150;53.514;9.988;2022-12-18T02:12:16;2.50;72.70
14140;DHT22;7150;53.514;9.988;2022-12-18T02:14:58;2.50;72.70
14140;DHT22;7150;53.514;9.988;2022-12-18T02:20:35;2.40;72.80
14140;DHT22;7150;53.514;9.988;2022-12-18T02:23:21;2.40;72.70
14140;DHT22;7150;53.514;9.988;2022-12-18T02:26:11;2.30;72.60
14140;DHT22;7150;53.514;9.988;2022-12-18T02:29:06;2.30;72.70
14140;DHT22;7150;53.514;9.988;2022-12-18T02:31:38;2.40;72.90
14140;DHT22;7150;53.514;9.988;2022-12-18T02:34:06;2.40;72.80
14140;DHT22;7150;53.514;9.988;2022-12-18T02:36:33;2.40;72.60
14140;DHT22;7150;53.514;9.988;2022-12-18T02:39:01;2.40;72.60
14140;DHT22;7150;53.514;9.988;2022-12-18T02:41:28;2.40;72.60
14140;DHT22;7150;53.514;9.988;2022-12-18T02:43:57;2.50;72.50
14140;DHT22;7150;53.514;9.988;2022-12-18T02:46:38;2.50;72.40
14140;DHT22;7150;53.514;9.988;2022-12-18T02:52:24;2.50;72.00
14140;DHT22;7150;53.514;9.988;2022-12-18T02:58:05;2.50;71.70
14140;DHT22;7150;53.514;9.988;2022-12-18T03:00:51;2.50;71.50
14140;DHT22;7150;53.514;9.988;2022-12-18T03:03:20;2.40;71.40
14140;DHT22;7150;53.514;9.988;2022-12-18T03:06:11;2.40;71.40
14140;DHT22;7150;53.514;9.988;2022-12-18T03:08:42;2.40;71.40
14140;DHT22;7150;53.514;9.988;2022-12-18T03:11:11;2.40;71.20
14140;DHT22;7150;53.514;9.988;2022-12-18T03:13:47;2.40;71.10
14140;DHT22;7150;53.514;9.988;2022-12-18T03:16:23;2.40;71.30
14140;DHT22;7150;53.514;9.988;2022-12-18T03:18:56;2.50;71.20
14140;DHT22;7150;53.514;9.988;2022-12-18T03:21:29;2.30;71.00
14140;DHT22;7150;53.514;9.988;2022-12-18T03:23:57;2.40;71.50
14140;DHT22;7150;53.514;9.988;2022-12-18T03:26:24;2.40;71.30
14140;DHT22;7150;53.514;9.988;2022-12-18T03:28:59;2.40;71.20
14140;DHT22;7150;53.514;9.988;2022-12-18T03:31:26;2.40;71.20
14140;DHT22;7150;53.514;9.988;2022-12-18T03:33:55;2.40;71.20
14140;DHT22;7150;53.514;9.988;2022-12-18T03:36:21;2.40;71.10
14140;DHT22;7150;53.514;9.988;2022-12-18T03:38:47;2.30;71.00
14140;DHT22;7150;53.514;9.988;2022-12-18T03:41:33;2.30;71.00
14140;DHT22;7150;53.514;9.988;2022-12-18T03:44:23;2.30;71.20
14140;DHT22;7150;53.514;9.988;2022-12-18T03:47:14;2.20;71.20
14140;DHT22;7150;53.514;9.988;2022-12-18T03:49:50;2.20;71.50
14140;DHT22;7150;53.514;9.988;2022-12-18T03:52:28;2.20;71.50
14140;DHT22;7150;53.514;9.988;2022-12-18T03:54:56;2.10;71.70
14140;DHT22;7150;53.514;9.988;2022-12-18T03:57:26;2.10;71.60
14140;DHT22;7150;53.514;9.988;2022-12-18T03:59:56;2.00;71.70
14140;DHT22;7150;53.514;9.988;2022-12-18T04:02:23;2.10;71.90
14140;DHT22;7150;53.514;9.988;2022-12-18T04:04:52;2.10;71.80
14140;DHT22;7150;53.514;9.988;2022-12-18T04:07:19;2.20;71.90
14140;DHT22;7150;53.514;9.988;2022-12-18T04:09:48;2.30;71.80
14140;DHT22;7150;53.514;9.988;2022-12-18T04:12:14;2.30;71.60
14140;DHT22;7150;53.514;9.988;2022-12-18T04:14:39;2.30;71.40
14140;DHT22;7150;53.514;9.988;2022-12-18T04:17:05;2.30;71.30
14140;DHT22;7150;53.514;9.988;2022-12-18T04:19:30;2.30;71.10
14140;DHT22;7150;53.514;9.988;2022-12-18T04:21:56;2.30;71.10
14140;DHT22;7150;53.514;9.988;2022-12-18T04:24:21;2.20;71.00
14140;DHT22;7150;53.514;9.988;2022-12-18T04:26:47;2.20;70.90
14140;DHT22;7150;53.514;9.988;2022-12-18T04:29:12;2.20;71.20
14140;DHT22;7150;53.514;9.988;2022-12-18T04:31:38;2.20;71.10
14140;DHT22;7150;53.514;9.988;2022-12-18T04:34:03;2.20;71.00
14140;DHT22;7150;53.514;9.988;2022-12-18T04:36:29;2.30;71.10
14140;DHT22;7150;53.514;9.988;2022-12-18T04:38:55;2.20;70.80
14140;DHT22;7150;53.514;9.988;2022-12-18T04:41:20;2.20;70.70
14140;DHT22;7150;53.514;9.988;2022-12-18T04:43:46;2.20;70.80
14140;DHT22;7150;53.514;9.988;2022-12-18T04:46:11;2.10;70.60
14140;DHT22;7150;53.514;9.988;2022-12-18T04:48:37;2.10;70.80
14140;DHT22;7150;53.514;9.988;2022-12-18T04:51:04;2.10;70.70
14140;DHT22;7150;53.514;9.988;2022-12-18T04:53:30;2.00;70.90
14140;DHT22;7150;53.514;9.988;2022-12-18T04:56:10;2.00;71.10
14140;DHT22;7150;53.514;9.988;2022-12-18T04:58:37;2.00;70.90
14140;DHT22;7150;53.514;9.988;2022-12-18T05:01:03;2.00;71.00
14140;DHT22;7150;53.514;9.988;2022-12-18T05:03:29;2.00;71.00
14140;DHT22;7150;53.514;9.988;2022-12-18T05:05:54;2.00;71.00
14140;DHT22;7150;53.514;9.988;2022-12-18T05:08:20;2.00;70.90
14140;DHT22;7150;53.514;9.988;2022-12-18T05:10:46;2.00;70.90
14140;DHT22;7150;53.514;9.988;2022-12-18T05:13:11;1.90;70.90
14140;DHT22;7150;53.514;9.988;2022-12-18T05:15:37;1.90;71.00
14140;DHT22;7150;53.514;9.988;2022-12-18T05:18:03;2.00;71.00
14140;DHT22;7150;53.514;9.988;2022-12-18T05:20:29;2.00;71.10
14140;DHT22;7150;53.514;9.988;2022-12-18T05:22:55;2.00;71.00
14140;DHT22;7150;53.514;9.988;2022-12-18T05:25:21;2.00;71.00
14140;DHT22;7150;53.514;9.988;2022-12-18T05:27:47;2.00;70.90
14140;DHT22;7150;53.514;9.988;2022-12-18T05:30:14;2.00;70.90
14140;DHT22;7150;53.514;9.988;2022-12-18T05:32:40;1.90;70.60
14140;DHT22;7150;53.514;9.988;2022-12-18T05:35:10;1.90;70.90
14140;DHT22;7150;53.514;9.988;2022-12-18T05:37:36;1.90;70.90
14140;DHT22;7150;53.514;9.988;2022-12-18T05:40:03;1.90;71.00
14140;DHT22;7150;53.514;9.988;2022-12-18T05:42:28;1.80;71.00
14140;DHT22;7150;53.514;9.988;2022-12-18T05:44:54;1.90;71.00
14140;DHT22;7150;53.514;9.988;2022-12-18T05:47:19;1.80;71.00
14140;DHT22;7150;53.514;9.988;2022-12-18T05:49:45;1.80;71.00
14140;DHT22;7150;53.514;9.988;2022-12-18T05:52:10;1.80;71.00
14140;DHT22;7150;53.514;9.988;2022-12-18T05:54:36;1.90;71.00
14140;DHT22;7150;53.514;9.988;2022-12-18T05:57:01;1.90;70.90
14140;DHT22;7150;53.514;9.988;2022-12-18T05:59:27;1.90;70.80
14140;DHT22;7150;53.514;9.988;2022-12-18T06:01:52;2.00;70.70
14140;DHT22;7150;53.514;9.988;2022-12-18T06:04:18;2.00;70.50
14140;DHT22;7150;53.514;9.988;2022-12-18T06:06:43;2.00;70.40
14140;DHT22;7150;53.514;9.988;2022-12-18T06:09:09;2.00;70.40
14140;DHT22;7150;53.514;9.988;2022-12-18T06:11:36;2.00;70.30
14140;DHT22;7150;53.514;9.988;2022-12-18T06:14:03;2.00;70.20
14140;DHT22;7150;53.514;9.988;2022-12-18T06:16:30;1.90;70.10
14140;DHT22;7150;53.514;9.988;2022-12-18T06:19:00;1.90;70.10
14140;DHT22;7150;53.514;9.988;2022-12-18T06:21:26;1.90;70.20
14140;DHT22;7150;53.514;9.988;2022-12-18T06:23:52;1.80;70.30
14140;DHT22;7150;53.514;9.988;2022-12-18T06:26:18;1.80;70.30
14140;DHT22;7150;53.514;9.988;2022-12-18T06:28:43;1.70;70.40
14140;DHT22;7150;53.514;9.988;2022-12-18T06:31:09;1.70;70.30
14140;DHT22;7150;53.514;9.988;2022-12-18T06:33:36;1.70;70.50
14140;DHT22;7150;53.514;9.988;2022-12-18T06:36:07;1.80;70.60
14140;DHT22;7150;53.514;9.988;2022-12-18T06:38:35;1.80;70.50
14140;DHT22;7150;53.514;9.988;2022-12-18T06:41:06;1.80;70.50
14140;DHT22;7150;53.514;9.988;2022-12-18T06:43:32;1.80;70.40
14140;DHT22;7150;53.514;9.988;2022-12-18T06:45:59;1.80;70.30
14140;DHT22;7150;53.514;9.988;2022-12-18T06:48:25;1.90;70.20
14140;DHT22;7150;53.514;9.988;2022-12-18T06:50:50;1.80;70.10
14140;DHT22;7150;53.514;9.988;2022-12-18T06:53:16;1.80;70.10
14140;DHT22;7150;53.514;9.988;2022-12-18T06:55:41;1.80;70.10
14140;DHT22;7150;53.514;9.988;2022-12-18T06:58:07;1.70;70.20
14140;DHT22;7150;53.514;9.988;2022-12-18T07:00:32;1.60;70.40
14140;DHT22;7150;53.514;9.988;2022-12-18T07:02:58;1.70;70.60
14140;DHT22;7150;53.514;9.988;2022-12-18T07:05:23;1.70;70.50
14140;DHT22;7150;53.514;9.988;2022-12-18T07:07:49;1.70;70.70
14140;DHT22;7150;53.514;9.988;2022-12-18T07:10:14;1.70;70.50
14140;DHT22;7150;53.514;9.988;2022-12-18T07:12:40;1.80;71.30
14140;DHT22;7150;53.514;9.988;2022-12-18T07:15:07;1.70;70.30
14140;DHT22;7150;53.514;9.988;2022-12-18T07:17:32;1.70;70.50
14140;DHT22;7150;53.514;9.988;2022-12-18T07:19:58;1.60;70.80
14140;DHT22;7150;53.514;9.988;2022-12-18T07:22:25;1.60;71.00
14140;DHT22;7150;53.514;9.988;2022-12-18T07:24:51;1.70;71.30
14140;DHT22;7150;53.514;9.988;2022-12-18T07:27:16;1.70;71.10
14140;DHT22;7150;53.514;9.988;2022-12-18T07:29:42;1.70;71.10
14140;DHT22;7150;53.514;9.988;2022-12-18T07:32:07;1.70;71.10
14140;DHT22;7150;53.514;9.988;2022-12-18T07:34:33;1.70;71.20
14140;DHT22;7150;53.514;9.988;2022-12-18T07:36:59;1.70;71.00
14140;DHT22;7150;53.514;9.988;2022-12-18T07:39:24;1.70;71.10
14140;DHT22;7150;53.514;9.988;2022-12-18T07:41:50;1.80;71.00
14140;DHT22;7150;53.514;9.988;2022-12-18T07:44:34;1.80;71.00
14140;DHT22;7150;53.514;9.988;2022-12-18T07:46:59;1.80;71.00
14140;DHT22;7150;53.514;9.988;2022-12-18T07:49:25;1.80;71.10
14140;DHT22;7150;53.514;9.988;2022-12-18T07:51:50;1.80;71.20
14140;DHT22;7150;53.514;9.988;2022-12-18T07:54:16;1.80;71.20
14140;DHT22;7150;53.514;9.988;2022-12-18T07:56:41;1.80;71.10
14140;DHT22;7150;53.514;9.988;2022-12-18T07:59:07;1.80;71.30
14140;DHT22;7150;53.514;9.988;2022-12-18T08:01:33;1.80;71.30
14140;DHT22;7150;53.514;9.988;2022-12-18T08:03:59;1.90;71.40
14140;DHT22;7150;53.514;9.988;2022-12-18T08:06:25;1.90;71.10
14140;DHT22;7150;53.514;9.988;2022-12-18T08:08:52;1.90;71.10
14140;DHT22;7150;53.514;9.988;2022-12-18T08:11:18;1.90;71.00
14140;DHT22;7150;53.514;9.988;2022-12-18T08:13:43;1.90;71.00
14140;DHT22;7150;53.514;9.988;2022-12-18T08:16:09;2.00;70.80
14140;DHT22;7150;53.514;9.988;2022-12-18T08:18:37;2.00;70.80
14140;DHT22;7150;53.514;9.988;2022-12-18T08:21:10;2.10;70.90
14140;DHT22;7150;53.514;9.988;2022-12-18T08:23:36;2.10;70.70
14140;DHT22;7150;53.514;9.988;2022-12-18T08:26:02;2.10;70.60
14140;DHT22;7150;53.514;9.988;2022-12-18T08:28:27;2.00;70.40
14140;DHT22;7150;53.514;9.988;2022-12-18T08:30:53;2.10;70.60
14140;DHT22;7150;53.514;9.988;2022-12-18T08:33:18;2.10;70.50
14140;DHT22;7150;53.514;9.988;2022-12-18T08:35:44;2.20;70.30
14140;DHT22;7150;53.514;9.988;2022-12-18T08:38:09;2.30;70.30
14140;DHT22;7150;53.514;9.988;2022-12-18T08:40:34;2.30;70.30
14140;DHT22;7150;53.514;9.988;2022-12-18T08:43:00;2.30;70.30
14140;DHT22;7150;53.514;9.988;2022-12-18T08:45:44;2.30;70.10
14140;DHT22;7150;53.514;9.988;2022-12-18T08:48:10;2.30;70.10
14140;DHT22;7150;53.514;9.988;2022-12-18T08:50:35;2.30;70.20
14140;DHT22;7150;53.514;9.988;2022-12-18T08:53:01;2.30;70.10
14140;DHT22;7150;53.514;9.988;2022-12-18T08:55:27;2.30;70.30
14140;DHT22;7150;53.514;9.988;2022-12-18T08:57:53;2.30;70.40
14140;DHT22;7150;53.514;9.988;2022-12-18T09:00:18;2.40;70.50
14140;DHT22;7150;53.514;9.988;2022-12-18T09:02:45;2.40;70.40
14140;DHT22;7150;53.514;9.988;2022-12-18T09:05:10;2.50;71.20
14140;DHT22;7150;53.514;9.988;2022-12-18T09:07:36;2.50;70.50
14140;DHT22;7150;53.514;9.988;2022-12-18T09:10:01;2.50;70.50
14140;DHT22;7150;53.514;9.988;2022-12-18T09:12:27;2.60;70.60
14140;DHT22;7150;53.514;9.988;2022-12-18T09:14:52;2.60;70.50
14140;DHT22;7150;53.514;9.988;2022-12-18T09:17:18;2.60;70.40
14140;DHT22;7150;53.514;9.988;2022-12-18T09:19:43;2.60;70.30
14140;DHT22;7150;53.514;9.988;2022-12-18T09:22:09;2.60;70.50
14140;DHT22;7150;53.514;9.988;2022-12-18T09:24:35;2.60;70.50
14140;DHT22;7150;53.514;9.988;2022-12-18T09:27:00;2.60;70.70
14140;DHT22;7150;53.514;9.988;2022-12-18T09:29:26;2.70;71.10
14140;DHT22;7150;53.514;9.988;2022-12-18T09:31:52;2.70;70.90
14140;DHT22;7150;53.514;9.988;2022-12-18T09:34:17;2.70;70.90
14140;DHT22;7150;53.514;9.988;2022-12-18T09:36:43;2.80;70.90
14140;DHT22;7150;53.514;9.988;2022-12-18T09:39:08;2.90;70.80
14140;DHT22;7150;53.514;9.988;2022-12-18T09:41:48;2.90;70.80
14140;DHT22;7150;53.514;9.988;2022-12-18T09:44:32;2.90;71.00
14140;DHT22;7150;53.514;9.988;2022-12-18T09:49:46;2.90;71.10
14140;DHT22;7150;53.514;9.988;2022-12-18T09:52:24;3.00;71.30
14140;DHT22;7150;53.514;9.988;2022-12-18T09:54:55;3.00;71.30
14140;DHT22;7150;53.514;9.988;2022-12-18T09:57:23;3.00;71.50
14140;DHT22;7150;53.514;9.988;2022-12-18T09:59:56;3.10;71.40
14140;DHT22;7150;53.514;9.988;2022-12-18T10:02:26;3.10;71.30
14140;DHT22;7150;53.514;9.988;2022-12-18T10:05:13;3.20;71.30
14140;DHT22;7150;53.514;9.988;2022-12-18T10:08:02;3.20;71.30
14140;DHT22;7150;53.514;9.988;2022-12-18T10:13:33;3.30;71.40
14140;DHT22;7150;53.514;9.988;2022-12-18T10:21:55;3.40;71.70
14140;DHT22;7150;53.514;9.988;2022-12-18T10:24:33;3.40;71.70
14140;DHT22;7150;53.514;9.988;2022-12-18T10:27:24;3.50;71.80
14140;DHT22;7150;53.514;9.988;2022-12-18T10:29:50;3.50;71.90
14140;DHT22;7150;53.514;9.988;2022-12-18T10:32:19;3.50;72.00
14140;DHT22;7150;53.514;9.988;2022-12-18T10:34:49;3.50;72.00
14140;DHT22;7150;53.514;9.988;2022-12-18T10:37:21;3.60;72.10
14140;DHT22;7150;53.514;9.988;2022-12-18T10:40:07;3.60;71.90
14140;DHT22;7150;53.514;9.988;2022-12-18T10:42:33;3.70;71.70
14140;DHT22;7150;53.514;9.988;2022-12-18T10:45:14;3.60;71.40
14140;DHT22;7150;53.514;9.988;2022-12-18T10:47:45;3.60;71.50
14140;DHT22;7150;53.514;9.988;2022-12-18T10:52:55;3.60;71.60
14140;DHT22;7150;53.514;9.988;2022-12-18T10:55:21;3.80;71.90
14140;DHT22;7150;53.514;9.988;2022-12-18T10:57:47;3.80;71.90
14140;DHT22;7150;53.514;9.988;2022-12-18T11:00:24;3.80;72.00
14140;DHT22;7150;53.514;9.988;2022-12-18T11:02:51;3.80;72.00
14140;DHT22;7150;53.514;9.988;2022-12-18T11:07:50;3.90;72.20
14140;DHT22;7150;53.514;9.988;2022-12-18T11:10:18;3.90;72.00
14140;DHT22;7150;53.514;9.988;2022-12-18T11:12:44;4.00;72.10
14140;DHT22;7150;53.514;9.988;2022-12-18T11:15:21;4.00;71.90
14140;DHT22;7150;53.514;9.988;2022-12-18T11:17:50;4.00;72.00
14140;DHT22;7150;53.514;9.988;2022-12-18T11:20:31;4.00;72.00
14140;DHT22;7150;53.514;9.988;2022-12-18T11:23:02;4.10;71.80
14140;DHT22;7150;53.514;9.988;2022-12-18T11:25:29;4.10;71.60
14140;DHT22;7150;53.514;9.988;2022-12-18T11:28:04;4.10;71.50
14140;DHT22;7150;53.514;9.988;2022-12-18T11:30:36;4.30;71.40
14140;DHT22;7150;53.514;9.988;2022-12-18T11:33:05;4.30;71.00
14140;DHT22;7150;53.514;9.988;2022-12-18T11:38:35;4.30;70.70
14140;DHT22;7150;53.514;9.988;2022-12-18T11:43:55;4.30;70.30
14140;DHT22;7150;53.514;9.988;2022-12-18T11:46:32;4.30;70.50
14140;DHT22;7150;53.514;9.988;2022-12-18T11:49:03;4.30;70.60
14140;DHT22;7150;53.514;9.988;2022-12-18T11:51:41;4.30;70.60
14140;DHT22;7150;53.514;9.988;2022-12-18T11:54:14;4.40;70.80
14140;DHT22;7150;53.514;9.988;2022-12-18T11:56:48;4.40;70.90
14140;DHT22;7150;53.514;9.988;2022-12-18T11:59:34;4.50;71.00
14140;DHT22;7150;53.514;9.988;2022-12-18T12:02:28;4.50;71.00
14140;DHT22;7150;53.514;9.988;2022-12-18T12:05:17;4.50;71.00
14140;DHT22;7150;53.514;9.988;2022-12-18T12:07:53;4.50;70.90
14140;DHT22;7150;53.514;9.988;2022-12-18T12:13:36;4.60;70.90
14140;DHT22;7150;53.514;9.988;2022-12-18T12:16:15;4.60;71.40
14140;DHT22;7150;53.514;9.988;2022-12-18T12:21:58;4.60;70.50
14140;DHT22;7150;53.514;9.988;2022-12-18T12:25:13;4.60;70.30
14140;DHT22;7150;53.514;9.988;2022-12-18T12:35:45;4.60;70.80
14140;DHT22;7150;53.514;9.988;2022-12-18T12:38:16;4.70;70.90
14140;DHT22;7150;53.514;9.988;2022-12-18T12:40:48;4.70;70.80
14140;DHT22;7150;53.514;9.988;2022-12-18T12:43:35;4.80;70.80
14140;DHT22;7150;53.514;9.988;2022-12-18T12:46:06;4.80;70.90
14140;DHT22;7150;53.514;9.988;2022-12-18T12:48:40;4.80;70.80
14140;DHT22;7150;53.514;9.988;2022-12-18T12:51:32;4.90;70.70
14140;DHT22;7150;53.514;9.988;2022-12-18T12:54:00;4.90;70.50
14140;DHT22;7150;53.514;9.988;2022-12-18T13:02:04;5.00;69.90
14140;DHT22;7150;53.514;9.988;2022-12-18T13:04:38;5.00;69.70
14140;DHT22;7150;53.514;9.988;2022-12-18T13:07:21;5.00;69.40
14140;DHT22;7150;53.514;9.988;2022-12-18T13:10:23;5.00;69.20
14140;DHT22;7150;53.514;9.988;2022-12-18T13:12:57;5.10;69.20
14140;DHT22;7150;53.514;9.988;2022-12-18T13:18:24;5.10;69.30
14140;DHT22;7150;53.514;9.988;2022-12-18T13:20:51;5.10;69.10
14140;DHT22;7150;53.514;9.988;2022-12-18T13:23:35;5.00;68.80
14140;DHT22;7150;53.514;9.988;2022-12-18T13:31:00;5.00;68.80
14140;DHT22;7150;53.514;9.988;2022-12-18T13:33:43;5.00;68.80
14140;DHT22;7150;53.514;9.988;2022-12-18T13:36:26;5.00;68.80
14140;DHT22;7150;53.514;9.988;2022-12-18T13:39:31;4.90;68.80
14140;DHT22;7150;53.514;9.988;2022-12-18T13:44:36;4.90;69.00
14140;DHT22;7150;53.514;9.988;2022-12-18T13:47:03;4.80;69.00
14140;DHT22;7150;53.514;9.988;2022-12-18T13:49:39;4.80;69.00
14140;DHT22;7150;53.514;9.988;2022-12-18T13:52:36;4.90;69.00
14140;DHT22;7150;53.514;9.988;2022-12-18T13:55:10;4.80;69.00
14140;DHT22;7150;53.514;9.988;2022-12-18T13:57:39;4.80;69.10
14140;DHT22;7150;53.514;9.988;2022-12-18T14:00:24;4.80;69.20
14140;DHT22;7150;53.514;9.988;2022-12-18T14:02:50;4.80;69.20
14140;DHT22;7150;53.514;9.988;2022-12-18T14:07:49;4.70;68.90
14140;DHT22;7150;53.514;9.988;2022-12-18T14:10:16;4.80;68.90
14140;DHT22;7150;53.514;9.988;2022-12-18T14:12:45;4.80;69.00
14140;DHT22;7150;53.514;9.988;2022-12-18T14:18:01;4.70;68.90
14140;DHT22;7150;53.514;9.988;2022-12-18T14:20:30;4.70;68.90
14140;DHT22;7150;53.514;9.988;2022-12-18T14:22:57;4.70;69.00
14140;DHT22;7150;53.514;9.988;2022-12-18T14:25:27;4.70;68.90
14140;DHT22;7150;53.514;9.988;2022-12-18T14:30:38;4.70;68.60
14140;DHT22;7150;53.514;9.988;2022-12-18T14:33:12;4.70;68.60
14140;DHT22;7150;53.514;9.988;2022-12-18T14:35:53;4.70;68.90
14140;DHT22;7150;53.514;9.988;2022-12-18T14:38:28;4.60;68.80
14140;DHT22;7150;53.514;9.988;2022-12-18T14:40:59;4.60;68.90
14140;DHT22;7150;53.514;9.988;2022-12-18T14:43:31;4.60;68.90
14140;DHT22;7150;53.514;9.988;2022-12-18T14:45:57;4.60;69.00
14140;DHT22;7150;53.514;9.988;2022-12-18T14:48:36;4.60;69.10
14140;DHT22;7150;53.514;9.988;2022-12-18T14:51:06;4.60;69.20
14140;DHT22;7150;53.514;9.988;2022-12-18T14:53:35;4.50;69.30
14140;DHT22;7150;53.514;9.988;2022-12-18T14:56:02;4.60;69.20
14140;DHT22;7150;53.514;9.988;2022-12-18T14:58:28;4.50;69.20
14140;DHT22;7150;53.514;9.988;2022-12-18T15:00:53;4.50;69.30
14140;DHT22;7150;53.514;9.988;2022-12-18T15:03:21;4.50;69.50
14140;DHT22;7150;53.514;9.988;2022-12-18T15:05:47;4.50;69.60
14140;DHT22;7150;53.514;9.988;2022-12-18T15:08:32;4.50;69.70
14140;DHT22;7150;53.514;9.988;2022-12-18T15:10:59;4.50;69.70
14140;DHT22;7150;53.514;9.988;2022-12-18T15:13:25;4.40;69.70
14140;DHT22;7150;53.514;9.988;2022-12-18T15:15:52;4.50;69.70
14140;DHT22;7150;53.514;9.988;2022-12-18T15:18:20;4.50;69.70
14140;DHT22;7150;53.514;9.988;2022-12-18T15:20:55;4.40;69.70
14140;DHT22;7150;53.514;9.988;2022-12-18T15:23:27;4.40;69.70
14140;DHT22;7150;53.514;9.988;2022-12-18T15:25:58;4.40;69.80
14140;DHT22;7150;53.514;9.988;2022-12-18T15:28:36;4.40;69.90
14140;DHT22;7150;53.514;9.988;2022-12-18T15:31:03;4.40;69.80
14140;DHT22;7150;53.514;9.988;2022-12-18T15:33:38;4.40;69.90
14140;DHT22;7150;53.514;9.988;2022-12-18T15:36:15;4.30;70.00
14140;DHT22;7150;53.514;9.988;2022-12-18T15:38:41;4.30;70.30
14140;DHT22;7150;53.514;9.988;2022-12-18T15:41:15;4.30;70.20
14140;DHT22;7150;53.514;9.988;2022-12-18T15:43:41;4.30;70.60
14140;DHT22;7150;53.514;9.988;2022-12-18T15:46:11;4.30;70.50
14140;DHT22;7150;53.514;9.988;2022-12-18T15:48:45;4.30;70.60
14140;DHT22;7150;53.514;9.988;2022-12-18T15:53:42;4.30;70.60
14140;DHT22;7150;53.514;9.988;2022-12-18T15:56:11;4.30;70.50
14140;DHT22;7150;53.514;9.988;2022-12-18T15:58:55;4.30;70.80
14140;DHT22;7150;53.514;9.988;2022-12-18T16:01:23;4.30;71.00
14140;DHT22;7150;53.514;9.988;2022-12-18T16:03:49;4.30;71.20
14140;DHT22;7150;53.514;9.988;2022-12-18T16:06:14;4.30;71.20
14140;DHT22;7150;53.514;9.988;2022-12-18T16:08:40;4.30;71.20
14140;DHT22;7150;53.514;9.988;2022-12-18T16:11:05;4.30;71.20
14140;DHT22;7150;53.514;9.988;2022-12-18T16:13:31;4.40;71.20
14140;DHT22;7150;53.514;9.988;2022-12-18T16:15:56;4.30;71.20
14140;DHT22;7150;53.514;9.988;2022-12-18T16:18:22;4.40;71.40
14140;DHT22;7150;53.514;9.988;2022-12-18T16:20:48;4.40;71.40
14140;DHT22;7150;53.514;9.988;2022-12-18T16:23:13;4.30;71.60
14140;DHT22;7150;53.514;9.988;2022-12-18T16:25:39;4.40;71.70
14140;DHT22;7150;53.514;9.988;2022-12-18T16:28:04;4.40;71.70
14140;DHT22;7150;53.514;9.988;2022-12-18T16:30:30;4.30;71.50
14140;DHT22;7150;53.514;9.988;2022-12-18T16:32:57;4.30;71.70
14140;DHT22;7150;53.514;9.988;2022-12-18T16:35:23;4.30;71.60
14140;DHT22;7150;53.514;9.988;2022-12-18T16:37:49;4.30;71.60
14140;DHT22;7150;53.514;9.988;2022-12-18T16:40:16;4.30;71.50
14140;DHT22;7150;53.514;9.988;2022-12-18T16:42:43;4.30;71.50
14140;DHT22;7150;53.514;9.988;2022-12-18T16:45:11;4.30;71.50
14140;DHT22;7150;53.514;9.988;2022-12-18T16:47:36;4.30;71.70
14140;DHT22;7150;53.514;9.988;2022-12-18T16:50:03;4.30;71.70
14140;DHT22;7150;53.514;9.988;2022-12-18T16:52:29;4.30;71.70
14140;DHT22;7150;53.514;9.988;2022-12-18T16:54:55;4.30;71.80
14140;DHT22;7150;53.514;9.988;2022-12-18T16:57:21;4.30;71.90
14140;DHT22;7150;53.514;9.988;2022-12-18T16:59:47;4.30;71.80
14140;DHT22;7150;53.514;9.988;2022-12-18T17:02:24;4.30;71.80
14140;DHT22;7150;53.514;9.988;2022-12-18T17:04:53;4.30;71.80
14140;DHT22;7150;53.514;9.988;2022-12-18T17:07:19;4.30;71.80
14140;DHT22;7150;53.514;9.988;2022-12-18T17:09:44;4.30;71.80
14140;DHT22;7150;53.514;9.988;2022-12-18T17:12:10;4.30;71.90
14140;DHT22;7150;53.514;9.988;2022-12-18T17:14:36;4.30;71.90
14140;DHT22;7150;53.514;9.988;2022-12-18T17:17:01;4.30;72.00
14140;DHT22;7150;53.514;9.988;2022-12-18T17:19:27;4.30;71.90
14140;DHT22;7150;53.514;9.988;2022-12-18T17:21:53;4.30;71.80
14140;DHT22;7150;53.514;9.988;2022-12-18T17:24:19;4.30;71.90
14140;DHT22;7150;53.514;9.988;2022-12-18T17:26:45;4.30;71.90
14140;DHT22;7150;53.514;9.988;2022-12-18T17:29:17;4.30;71.80
14140;DHT22;7150;53.514;9.988;2022-12-18T17:31:42;4.30;71.80
14140;DHT22;7150;53.514;9.988;2022-12-18T17:34:10;4.40;71.80
14140;DHT22;7150;53.514;9.988;2022-12-18T17:36:35;4.30;71.70